Time;durP1;ratioP1;P1;durP2;ratioP2;P2;SDS_P1;SDS_P2;PMS_P1;PMS_P2;Temp;Humidity;BMP_temperature;BMP_pressure;BME280_temperature;BME280_humidity;BME280_pressure;Samples;Min_cycle;Max_cycle;Signal;HPM_P1;HPM_P2
2023/03/26 00:01:14;;;;;;;2.83;0.57;;;9.30;99.90;;;;;;4947598;29;20043;-67
2023/03/26 00:03:43;;;;;;;2.60;0.30;;;9.20;99.90;;;;;;4930148;29;20129;-67
2023/03/26 00:06:12;;;;;;;4.50;1.35;;;9.20;99.90;;;;;;4916820;29;20032;-67
2023/03/26 00:08:44;;;;;;;5.05;0.60;;;9.10;99.90;;;;;;4930879;29;20032;-68
2023/03/26 00:11:13;;;;;;;1.45;0.45;;;9.00;99.90;;;;;;4915809;29;20122;-67
2023/03/26 00:13:40;;;;;;;3.70;0.57;;;9.00;99.90;;;;;;4920870;29;20036;-67
2023/03/26 00:16:06;;;;;;;6.30;0.55;;;8.90;99.90;;;;;;4923096;29;20449;-67
2023/03/26 00:18:36;;;;;;;2.22;0.40;;;8.90;99.90;;;;;;4925144;29;20130;-67
2023/03/26 00:21:04;;;;;;;1.65;0.95;;;8.80;99.90;;;;;;4922265;29;20504;-66
2023/03/26 00:23:34;;;;;;;0.50;0.30;;;8.70;99.90;;;;;;4922438;29;20048;-66
2023/03/26 00:26:01;;;;;;;0.55;0.30;;;8.70;99.90;;;;;;4913274;29;20032;-66
2023/03/26 00:28:28;;;;;;;2.28;0.63;;;8.70;99.90;;;;;;4921554;29;20397;-67
2023/03/26 00:31:07;;;;;;;1.45;0.60;;;8.60;99.90;;;;;;4933914;29;20035;-66
2023/03/26 00:33:37;;;;;;;1.98;0.63;;;8.70;99.90;;;;;;4917951;29;20126;-66
2023/03/26 00:36:05;;;;;;;2.45;0.70;;;8.60;99.90;;;;;;4921085;29;20388;-67
2023/03/26 00:38:37;;;;;;;4.25;0.30;;;8.60;99.90;;;;;;4918263;29;20035;-66
2023/03/26 00:41:06;;;;;;;1.73;0.40;;;8.50;99.90;;;;;;4923367;29;20126;-67
2023/03/26 00:43:34;;;;;;;2.40;0.32;;;8.50;99.90;;;;;;4919526;29;20047;-67
2023/03/26 00:46:01;;;;;;;6.40;0.90;;;8.50;99.90;;;;;;4926738;29;20064;-67
2023/03/26 00:48:28;;;;;;;1.90;0.50;;;8.40;99.90;;;;;;4933938;28;20039;-66
2023/03/26 00:50:58;;;;;;;2.65;0.47;;;8.40;99.90;;;;;;4922819;29;20086;-67
2023/03/26 00:53:24;;;;;;;0.35;0.20;;;8.40;99.90;;;;;;4916937;29;20489;-67
2023/03/26 00:55:50;;;;;;;4.57;1.25;;;8.40;99.90;;;;;;4926646;29;20035;-67
2023/03/26 00:58:16;;;;;;;3.92;1.10;;;8.50;99.90;;;;;;4933130;29;20486;-67
2023/03/26 01:00:51;;;;;;;1.70;0.63;;;8.50;99.90;;;;;;4929898;29;20107;-67
2023/03/26 01:03:19;;;;;;;2.17;0.85;;;8.50;99.90;;;;;;4913738;29;20495;-67
2023/03/26 01:06:01;;;;;;;4.07;1.02;;;8.50;99.90;;;;;;4925526;29;20036;-67
2023/03/26 01:08:45;;;;;;;1.42;0.32;;;8.50;99.90;;;;;;4932430;29;20043;-67
2023/03/26 01:11:29;;;;;;;3.75;0.70;;;8.50;99.90;;;;;;4926455;29;20042;-67
2023/03/26 01:14:10;;;;;;;3.75;0.38;;;8.60;99.90;;;;;;4926443;29;20048;-67
2023/03/26 01:17:01;;;;;;;2.78;0.60;;;8.70;99.90;;;;;;4932671;29;20408;-67
2023/03/26 01:19:38;;;;;;;2.38;1.05;;;8.70;99.90;;;;;;4929208;29;20134;-68
2023/03/26 01:22:10;;;;;;;8.82;1.20;;;8.60;99.90;;;;;;4926740;29;20035;-67
2023/03/26 01:24:38;;;;;;;1.13;0.55;;;8.60;99.90;;;;;;4916035;29;20028;-67
2023/03/26 01:27:34;;;;;;;1.08;0.65;;;8.50;99.90;;;;;;4911175;29;20033;-67
2023/03/26 01:30:33;;;;;;;0.73;0.40;;;8.50;99.90;;;;;;4930650;29;20031;-67
2023/03/26 01:33:35;;;;;;;4.07;0.38;;;8.60;99.90;;;;;;4925541;29;20036;-67
2023/03/26 01:36:23;;;;;;;1.98;0.40;;;8.50;99.90;;;;;;4937673;28;20031;-67
2023/03/26 01:39:17;;;;;;;2.65;0.50;;;8.50;99.90;;;;;;4920315;29;20036;-67
2023/03/26 01:41:55;;;;;;;0.98;0.45;;;8.50;99.90;;;;;;4913458;29;20472;-67
2023/03/26 01:44:43;;;;;;;3.83;0.55;;;8.50;99.90;;;;;;4919256;29;20075;-68
2023/03/26 01:47:11;;;;;;;3.15;0.40;;;8.60;99.90;;;;;;4916776;29;20055;-67
2023/03/26 01:49:37;;;;;;;1.52;0.50;;;8.60;99.90;;;;;;4927604;29;20038;-67
2023/03/26 01:52:14;;;;;;;1.33;0.90;;;8.60;99.90;;;;;;4935587;29;20036;-67
2023/03/26 01:54:41;;;;;;;5.95;1.17;;;8.60;99.90;;;;;;4928661;29;20035;-67
2023/03/26 01:57:25;;;;;;;7.47;0.93;;;8.60;99.90;;;;;;4913444;29;20032;-67
2023/03/26 02:00:00;;;;;;;2.55;0.75;;;8.50;99.90;;;;;;4924570;29;20055;-67
2023/03/26 02:03:16;;;;;;;3.88;0.88;;;8.60;99.90;;;;;;4947364;29;20035;-67
2023/03/26 02:06:21;;;;;;;5.80;0.93;;;8.70;99.90;;;;;;4920859;29;20068;-67
2023/03/26 02:09:00;;;;;;;3.33;0.65;;;8.70;99.90;;;;;;4912124;29;20040;-67
2023/03/26 02:11:26;;;;;;;3.30;1.20;;;8.70;99.90;;;;;;4916094;29;20063;-67
2023/03/26 02:13:52;;;;;;;15.50;1.67;;;8.70;99.90;;;;;;4922866;29;20283;-67
2023/03/26 02:16:19;;;;;;;2.72;0.93;;;8.70;99.90;;;;;;4922242;29;20031;-67
2023/03/26 02:18:50;;;;;;;4.60;0.98;;;8.70;99.90;;;;;;4940021;29;20058;-67
2023/03/26 02:21:21;;;;;;;3.70;0.98;;;8.70;99.90;;;;;;4927573;29;20027;-67
2023/03/26 02:23:56;;;;;;;2.42;1.33;;;8.70;99.90;;;;;;4919940;29;20382;-67
2023/03/26 02:26:23;;;;;;;4.78;0.90;;;8.80;99.90;;;;;;4928121;29;20086;-67
2023/03/26 02:28:49;;;;;;;2.47;0.30;;;8.80;99.90;;;;;;4939628;29;20095;-68
2023/03/26 02:31:16;;;;;;;8.80;1.17;;;8.80;99.90;;;;;;4922447;29;20032;-67
2023/03/26 02:33:43;;;;;;;1.00;0.55;;;8.80;99.90;;;;;;4931301;29;20027;-67
2023/03/26 02:36:12;;;;;;;0.47;0.25;;;8.80;99.90;;;;;;4930626;29;20746;-67
2023/03/26 02:38:40;;;;;;;7.25;0.70;;;8.80;99.90;;;;;;4933739;28;20167;-67
2023/03/26 02:41:06;;;;;;;0.60;0.40;;;8.80;99.90;;;;;;4940982;29;20034;-67
2023/03/26 02:43:32;;;;;;;13.98;0.82;;;8.80;99.90;;;;;;4922384;29;20040;-67
2023/03/26 02:45:58;;;;;;;2.00;0.80;;;8.80;99.90;;;;;;4925252;29;20034;-67
2023/03/26 02:48:24;;;;;;;2.38;0.63;;;8.80;99.90;;;;;;4943573;29;20184;-67
2023/03/26 02:50:52;;;;;;;1.13;0.68;;;8.80;99.90;;;;;;4931665;29;20035;-68
2023/03/26 02:53:20;;;;;;;2.35;0.80;;;8.80;99.90;;;;;;4929320;29;20048;-68
2023/03/26 02:55:46;;;;;;;1.05;0.40;;;8.80;99.90;;;;;;4928655;29;20032;-67
2023/03/26 02:58:16;;;;;;;9.57;0.75;;;8.90;99.90;;;;;;4916514;29;20036;-67
2023/03/26 03:00:45;;;;;;;1.73;0.52;;;8.90;99.90;;;;;;4927471;29;20032;-67
2023/03/26 03:03:13;;;;;;;1.85;1.00;;;8.90;99.90;;;;;;4925748;29;20024;-67
2023/03/26 03:05:41;;;;;;;2.03;0.60;;;8.80;99.90;;;;;;4933829;29;20046;-67
2023/03/26 03:08:08;;;;;;;2.25;0.40;;;8.80;99.90;;;;;;4927131;29;20048;-67
2023/03/26 03:10:36;;;;;;;1.65;0.65;;;8.70;99.90;;;;;;4932945;29;20038;-67
2023/03/26 03:13:04;;;;;;;0.43;0.28;;;8.60;99.90;;;;;;4927032;29;20036;-67
2023/03/26 03:15:30;;;;;;;1.52;0.95;;;8.60;99.90;;;;;;4944464;23;20231;-65
2023/03/26 03:17:56;;;;;;;0.73;0.50;;;8.50;99.90;;;;;;4936273;29;20115;-66
2023/03/26 03:20:22;;;;;;;6.97;0.85;;;8.30;99.90;;;;;;4929589;29;20059;-66
2023/03/26 03:22:47;;;;;;;2.83;0.90;;;8.30;99.90;;;;;;4935945;29;20027;-66
2023/03/26 03:25:16;;;;;;;1.88;0.77;;;8.20;99.90;;;;;;4935158;29;20047;-66
2023/03/26 03:27:43;;;;;;;7.95;1.60;;;8.20;99.90;;;;;;4936032;29;20428;-66
2023/03/26 03:30:12;;;;;;;2.25;0.63;;;8.20;99.90;;;;;;4931332;29;20032;-66
2023/03/26 03:32:38;;;;;;;4.78;0.43;;;8.30;99.90;;;;;;4933037;29;20054;-66
2023/03/26 03:35:04;;;;;;;6.20;0.75;;;8.30;99.90;;;;;;4930704;29;20484;-65
2023/03/26 03:37:30;;;;;;;6.03;1.23;;;8.30;99.90;;;;;;4931737;29;20436;-66
2023/03/26 03:39:56;;;;;;;1.42;0.75;;;8.20;99.90;;;;;;4934315;29;20035;-66
2023/03/26 03:42:21;;;;;;;3.45;1.00;;;8.20;99.90;;;;;;4936115;29;20389;-66
2023/03/26 03:44:47;;;;;;;1.73;0.70;;;8.10;99.90;;;;;;4935086;29;20071;-66
2023/03/26 03:47:14;;;;;;;7.65;0.82;;;8.10;99.90;;;;;;4935782;29;20028;-66
2023/03/26 03:49:40;;;;;;;5.43;0.80;;;8.00;99.90;;;;;;4935233;29;20034;-66
2023/03/26 03:52:06;;;;;;;2.42;1.13;;;8.00;99.90;;;;;;4934476;29;20020;-66
2023/03/26 03:54:32;;;;;;;3.15;0.50;;;7.90;99.90;;;;;;4935113;29;20036;-66
2023/03/26 03:56:57;;;;;;;2.45;1.15;;;7.90;99.90;;;;;;4935429;29;20031;-66
2023/03/26 03:59:23;;;;;;;10.27;1.05;;;7.90;99.90;;;;;;4935219;29;20039;-66
2023/03/26 04:01:49;;;;;;;2.30;0.82;;;7.90;99.90;;;;;;4935077;29;20039;-66
2023/03/26 04:04:16;;;;;;;5.07;1.20;;;8.00;99.90;;;;;;4935022;29;20035;-66
2023/03/26 04:06:42;;;;;;;2.80;1.08;;;7.90;99.90;;;;;;4928581;29;20415;-66
2023/03/26 04:09:11;;;;;;;2.13;0.82;;;8.00;99.90;;;;;;4933163;29;20028;-66
2023/03/26 04:11:36;;;;;;;2.20;1.38;;;8.00;99.90;;;;;;4934630;29;20036;-66
2023/03/26 04:14:02;;;;;;;1.20;0.43;;;8.00;99.90;;;;;;4933666;29;20038;-66
2023/03/26 04:16:28;;;;;;;5.63;2.15;;;7.90;99.90;;;;;;4933350;29;20524;-66
2023/03/26 04:18:56;;;;;;;1.35;0.75;;;7.90;99.90;;;;;;4934140;29;20050;-66
2023/03/26 04:21:23;;;;;;;1.27;1.02;;;7.90;99.90;;;;;;4934555;29;20753;-66
2023/03/26 04:23:48;;;;;;;3.70;0.60;;;7.90;99.90;;;;;;4934703;29;20044;-66
2023/03/26 04:26:18;;;;;;;5.97;1.02;;;8.00;99.90;;;;;;4934450;29;20028;-67
2023/03/26 04:28:56;;;;;;;6.88;1.10;;;7.90;99.90;;;;;;4933608;29;20038;-66
2023/03/26 04:31:27;;;;;;;3.50;1.35;;;7.90;99.90;;;;;;4929841;29;20445;-66
2023/03/26 04:34:00;;;;;;;4.68;1.50;;;7.90;99.90;;;;;;4927260;29;20538;-66
2023/03/26 04:36:31;;;;;;;7.18;0.80;;;7.90;99.90;;;;;;4933124;29;20039;-66
2023/03/26 04:39:01;;;;;;;8.43;1.40;;;7.90;99.90;;;;;;4933790;29;20114;-65
2023/03/26 04:41:27;;;;;;;1.23;0.55;;;7.90;99.90;;;;;;4933005;29;20038;-66
2023/03/26 04:43:54;;;;;;;1.30;0.57;;;7.90;99.90;;;;;;4933365;29;20047;-66
2023/03/26 04:46:22;;;;;;;3.95;0.80;;;8.00;99.90;;;;;;4934399;29;20038;-66
2023/03/26 04:48:50;;;;;;;1.48;0.60;;;8.00;99.90;;;;;;4933284;29;20034;-66
2023/03/26 04:51:17;;;;;;;4.32;1.33;;;8.00;99.90;;;;;;4926664;29;20708;-66
2023/03/26 04:53:58;;;;;;;2.08;0.60;;;8.00;99.90;;;;;;4932830;29;20127;-66
2023/03/26 04:56:30;;;;;;;0.95;0.65;;;8.00;99.90;;;;;;4910781;29;20686;-66
2023/03/26 04:59:00;;;;;;;3.78;1.02;;;7.90;99.90;;;;;;4927527;29;20119;-66
2023/03/26 05:01:29;;;;;;;8.05;0.57;;;8.00;99.90;;;;;;4932648;29;20365;-66
2023/03/26 05:03:57;;;;;;;2.50;0.77;;;8.00;99.90;;;;;;4934043;29;20058;-66
2023/03/26 05:06:27;;;;;;;4.47;1.13;;;8.00;99.90;;;;;;4932752;29;20037;-66
2023/03/26 05:08:53;;;;;;;1.25;0.60;;;8.00;99.90;;;;;;4925844;29;20564;-66
2023/03/26 05:11:19;;;;;;;3.05;1.05;;;8.00;99.90;;;;;;4910459;29;20036;-66
2023/03/26 05:13:45;;;;;;;10.02;1.30;;;8.00;99.90;;;;;;4932627;29;20038;-66
2023/03/26 05:16:12;;;;;;;1.23;0.65;;;8.00;99.90;;;;;;4933303;29;20094;-66
2023/03/26 05:18:38;;;;;;;0.98;0.70;;;8.10;99.90;;;;;;4932998;29;20039;-66
2023/03/26 05:21:04;;;;;;;5.82;1.02;;;8.10;99.90;;;;;;4933457;29;20159;-66
2023/03/26 05:23:30;;;;;;;8.48;0.88;;;8.10;99.90;;;;;;4933549;29;20024;-66
2023/03/26 05:25:56;;;;;;;8.57;1.13;;;8.10;99.90;;;;;;4932138;29;20066;-66
2023/03/26 05:28:23;;;;;;;2.33;1.17;;;8.10;99.90;;;;;;4932910;29;20063;-67
2023/03/26 05:30:51;;;;;;;3.50;1.67;;;8.20;99.90;;;;;;4926989;29;20035;-67
2023/03/26 05:33:19;;;;;;;1.73;0.70;;;8.20;99.90;;;;;;4932278;29;20020;-67
2023/03/26 05:35:45;;;;;;;2.08;0.63;;;8.10;99.90;;;;;;4926853;29;20040;-67
2023/03/26 05:38:11;;;;;;;1.45;0.63;;;8.20;99.90;;;;;;4932515;29;20387;-66
2023/03/26 05:40:37;;;;;;;0.45;0.40;;;8.20;99.90;;;;;;4933425;29;20039;-67
2023/03/26 05:43:03;;;;;;;4.47;0.93;;;8.20;99.90;;;;;;4932141;29;20050;-66
2023/03/26 05:45:29;;;;;;;1.75;0.73;;;8.20;99.90;;;;;;4928801;29;20044;-67
2023/03/26 05:47:55;;;;;;;2.95;0.85;;;8.10;99.90;;;;;;4933850;29;20461;-67
2023/03/26 05:50:22;;;;;;;1.67;0.80;;;8.10;99.90;;;;;;4928739;29;20032;-66
2023/03/26 05:52:47;;;;;;;1.10;0.63;;;8.10;99.90;;;;;;4931848;29;20023;-66
2023/03/26 05:55:13;;;;;;;1.40;0.70;;;8.10;99.90;;;;;;4932783;29;20503;-66
2023/03/26 05:57:40;;;;;;;3.60;1.10;;;8.10;99.90;;;;;;4933204;29;20040;-66
2023/03/26 06:00:10;;;;;;;2.70;0.75;;;8.10;99.90;;;;;;4932930;29;20063;-66
2023/03/26 06:02:36;;;;;;;16.65;1.30;;;8.10;99.90;;;;;;4930019;29;20118;-66
2023/03/26 06:05:03;;;;;;;1.65;0.70;;;8.00;99.90;;;;;;4926521;29;20152;-66
2023/03/26 06:07:30;;;;;;;2.10;1.00;;;8.00;99.90;;;;;;4925298;29;20028;-66
2023/03/26 06:09:56;;;;;;;2.63;0.77;;;8.00;99.90;;;;;;4926607;29;20031;-67
2023/03/26 06:12:21;;;;;;;0.73;0.60;;;8.00;99.90;;;;;;4931674;29;20102;-67
2023/03/26 06:14:47;;;;;;;1.08;0.63;;;8.00;99.90;;;;;;4928668;29;20480;-68
2023/03/26 06:17:13;;;;;;;3.40;0.80;;;8.00;99.90;;;;;;4932777;29;20523;-68
2023/03/26 06:19:39;;;;;;;11.00;1.50;;;8.10;99.90;;;;;;4932793;29;20097;-65
2023/03/26 06:22:04;;;;;;;1.67;0.73;;;8.20;99.90;;;;;;4927442;29;20404;-65
2023/03/26 06:24:31;;;;;;;3.25;0.77;;;8.20;99.90;;;;;;4932558;29;20039;-66
2023/03/26 06:26:57;;;;;;;13.45;1.08;;;8.20;99.90;;;;;;4931764;29;20472;-64
2023/03/26 06:29:24;;;;;;;2.10;1.10;;;8.10;99.90;;;;;;4933478;29;20093;-66
2023/03/26 06:31:49;;;;;;;2.20;0.75;;;8.20;99.90;;;;;;4931654;29;20051;-65
2023/03/26 06:34:15;;;;;;;3.50;1.10;;;8.20;99.90;;;;;;4935413;29;20450;-65
2023/03/26 06:36:41;;;;;;;4.20;1.27;;;8.20;99.90;;;;;;4936379;29;20542;-65
2023/03/26 06:39:07;;;;;;;0.63;0.40;;;8.20;99.90;;;;;;4936999;29;20102;-66
2023/03/26 06:41:34;;;;;;;2.42;1.15;;;8.30;99.90;;;;;;4930079;29;20116;-66
2023/03/26 06:44:00;;;;;;;6.60;0.40;;;8.20;99.90;;;;;;4935302;29;20031;-66
2023/03/26 06:46:26;;;;;;;0.77;0.50;;;8.20;99.90;;;;;;4936392;29;20035;-65
2023/03/26 06:48:52;;;;;;;1.95;0.65;;;8.20;99.90;;;;;;4936678;29;20035;-64
2023/03/26 06:51:18;;;;;;;2.22;0.85;;;8.20;99.90;;;;;;4936229;29;20106;-65
2023/03/26 06:53:43;;;;;;;2.17;0.60;;;8.20;99.90;;;;;;4936301;29;20154;-66
2023/03/26 06:56:09;;;;;;;6.03;0.52;;;8.20;99.90;;;;;;4936216;29;20032;-67
2023/03/26 06:58:35;;;;;;;4.18;0.93;;;8.20;99.90;;;;;;4936888;29;20032;-67
2023/03/26 07:01:01;;;;;;;7.85;1.83;;;8.20;99.90;;;;;;4935931;29;20075;-67
2023/03/26 07:03:27;;;;;;;9.95;1.05;;;8.20;99.90;;;;;;4934753;29;20539;-67
2023/03/26 07:05:53;;;;;;;2.67;0.90;;;8.30;99.90;;;;;;4932613;29;20039;-69
2023/03/26 07:08:19;;;;;;;1.52;1.17;;;8.30;99.90;;;;;;4928196;29;20043;-68
2023/03/26 07:10:45;;;;;;;5.75;0.82;;;8.30;99.90;;;;;;4918826;29;20118;-69
2023/03/26 07:13:11;;;;;;;8.10;1.10;;;8.30;99.90;;;;;;4934986;29;20388;-68
2023/03/26 07:15:37;;;;;;;1.50;0.75;;;8.30;99.90;;;;;;4935563;29;20035;-68
2023/03/26 07:18:03;;;;;;;2.92;1.45;;;8.30;99.90;;;;;;4935152;29;20023;-68
2023/03/26 07:20:29;;;;;;;3.25;1.23;;;8.40;99.90;;;;;;4934106;29;20095;-65
2023/03/26 07:22:55;;;;;;;1.90;0.93;;;8.40;99.90;;;;;;4935624;29;20094;-68
2023/03/26 07:25:22;;;;;;;5.53;0.75;;;8.40;99.90;;;;;;4935609;29;20043;-66
2023/03/26 07:28:30;;;;;;;6.15;0.95;;;8.50;99.90;;;;;;4934524;29;20020;-68
2023/03/26 07:31:25;;;;;;;4.65;1.15;;;8.60;99.90;;;;;;4935502;29;20392;-68
2023/03/26 07:34:00;;;;;;;0.73;0.40;;;8.70;99.90;;;;;;4928125;29;20028;-68
2023/03/26 07:36:52;;;;;;;2.38;1.20;;;8.60;99.90;;;;;;4932530;29;20112;-66
2023/03/26 07:39:57;;;;;;;4.80;0.90;;;8.70;99.90;;;;;;4930240;29;20051;-68
2023/03/26 07:42:55;;;;;;;0.65;0.60;;;8.70;99.90;;;;;;4932318;29;20075;-66
2023/03/26 07:45:28;;;;;;;6.63;2.20;;;8.70;99.90;;;;;;4932830;29;20083;-69
2023/03/26 07:47:55;;;;;;;3.83;1.00;;;8.70;99.90;;;;;;4943035;29;20032;-66
2023/03/26 07:50:23;;;;;;;1.73;0.80;;;8.70;99.90;;;;;;4928329;29;20036;-67
2023/03/26 07:52:50;;;;;;;3.60;0.93;;;8.70;99.90;;;;;;4918230;29;20510;-68
2023/03/26 07:55:17;;;;;;;2.90;1.17;;;8.70;99.90;;;;;;4930614;29;20056;-68
2023/03/26 07:58:24;;;;;;;3.03;1.25;;;8.70;99.90;;;;;;4933607;29;20028;-68
2023/03/26 08:01:13;;;;;;;6.53;2.97;;;8.70;99.90;;;;;;4931186;29;20122;-67
2023/03/26 08:04:09;;;;;;;4.95;1.45;;;8.70;99.90;;;;;;4933245;29;20592;-66
2023/03/26 08:06:38;;;;;;;2.42;0.90;;;8.60;99.90;;;;;;4932365;29;20151;-66
2023/03/26 08:09:34;;;;;;;1.63;0.90;;;8.60;99.90;;;;;;4941248;29;20731;-65
2023/03/26 08:12:26;;;;;;;3.50;0.93;;;8.60;99.90;;;;;;4946778;29;20055;-65
2023/03/26 08:15:21;;;;;;;3.58;1.27;;;8.40;99.90;;;;;;4924329;29;20135;-66
2023/03/26 08:17:53;;;;;;;14.77;1.02;;;8.40;99.90;;;;;;4931075;29;20039;-66
2023/03/26 08:20:40;;;;;;;6.70;1.23;;;8.20;99.90;;;;;;4930278;29;20051;-66
2023/03/26 08:23:26;;;;;;;3.63;1.65;;;8.10;99.90;;;;;;4929127;29;20138;-65
2023/03/26 08:26:12;;;;;;;2.42;0.63;;;8.10;99.90;;;;;;4927489;29;20040;-67
2023/03/26 08:29:05;;;;;;;1.45;1.02;;;8.00;99.90;;;;;;4930745;29;20047;-67
2023/03/26 08:31:38;;;;;;;7.68;1.35;;;7.90;99.90;;;;;;4930643;29;20028;-67
2023/03/26 08:34:05;;;;;;;4.53;0.90;;;7.90;99.90;;;;;;4920600;29;20171;-67
2023/03/26 08:36:31;;;;;;;6.55;1.52;;;7.90;99.90;;;;;;4934128;29;20043;-66
2023/03/26 08:38:58;;;;;;;8.57;0.90;;;7.80;99.90;;;;;;4931810;29;20032;-67
2023/03/26 08:41:54;;;;;;;2.75;1.33;;;7.80;99.90;;;;;;4912680;29;20044;-67
2023/03/26 08:45:00;;;;;;;5.43;1.45;;;7.80;99.90;;;;;;4931370;29;20047;-67
2023/03/26 08:48:19;;;;;;;9.30;1.88;;;7.70;99.90;;;;;;4930145;29;20035;-66
2023/03/26 08:50:56;;;;;;;8.88;0.60;;;7.70;99.90;;;;;;4924586;29;20043;-66
2023/03/26 08:54:05;;;;;;;4.90;0.98;;;7.80;99.90;;;;;;4918341;29;20031;-65
2023/03/26 08:57:15;;;;;;;1.75;0.60;;;7.90;99.90;;;;;;4930140;29;20063;-65
2023/03/26 09:00:10;;;;;;;7.15;1.33;;;7.90;99.90;;;;;;4925474;29;20091;-68
2023/03/26 09:03:12;;;;;;;1.45;0.77;;;8.00;99.90;;;;;;4931337;29;20396;-67
2023/03/26 09:06:15;;;;;;;4.57;0.82;;;8.00;99.90;;;;;;4934324;29;20031;-66
2023/03/26 09:09:26;;;;;;;1.65;0.93;;;8.10;99.90;;;;;;4927027;29;20394;-67
2023/03/26 09:12:41;;;;;;;1.38;0.70;;;8.10;99.90;;;;;;4916459;29;20024;-67
2023/03/26 09:18:13;;;;;;;;;;;8.60;99.90;;;;;;4949317;29;20070;-68
2023/03/26 09:21:10;;;;;;;1.60;0.77;;;8.80;99.90;;;;;;4952557;28;20110;-69
2023/03/26 09:23:54;;;;;;;1.77;1.00;;;8.90;99.90;;;;;;4949854;29;20058;-68
2023/03/26 09:26:24;;;;;;;3.67;0.77;;;9.00;99.90;;;;;;4941458;29;20475;-68
2023/03/26 09:29:26;;;;;;;6.97;0.95;;;9.20;99.90;;;;;;4959187;28;20086;-68
2023/03/26 09:32:08;;;;;;;;;;;9.20;99.90;;;;;;4966592;28;20027;-67
2023/03/26 09:34:51;;;;;;;4.78;0.63;;;9.10;99.90;;;;;;4943581;29;19914;-70
2023/03/26 09:37:46;;;;;;;0.75;0.55;;;9.10;99.90;;;;;;4947682;29;20052;-69
2023/03/26 09:40:23;;;;;;;0.30;0.30;;;9.10;99.90;;;;;;4947999;29;20361;-69
2023/03/26 09:43:14;;;;;;;4.13;0.98;;;9.20;99.90;;;;;;4951458;28;20027;-68
2023/03/26 09:46:22;;;;;;;4.83;0.90;;;9.20;99.90;;;;;;4951738;29;20050;-68
2023/03/26 09:49:14;;;;;;;1.48;0.63;;;9.30;99.90;;;;;;4949625;29;20043;-68
2023/03/26 09:52:01;;;;;;;;;;;9.40;99.90;;;;;;4942573;29;20142;-68
2023/03/26 09:54:58;;;;;;;0.85;0.30;;;9.30;99.90;;;;;;4943957;29;19919;-68
2023/03/26 09:58:00;;;;;;;2.53;0.85;;;9.40;99.90;;;;;;4949420;29;20046;-67
2023/03/26 10:01:11;;;;;;;3.38;0.73;;;9.50;99.90;;;;;;4948969;29;20035;-68
2023/03/26 10:04:21;;;;;;;4.43;0.52;;;9.80;99.90;;;;;;4964536;28;20090;-69
2023/03/26 10:07:07;;;;;;;4.57;0.60;;;9.90;99.90;;;;;;4949446;29;20027;-67
2023/03/26 10:10:09;;;;;;;2.15;1.15;;;10.10;99.90;;;;;;4943221;29;20090;-66
2023/03/26 10:12:56;;;;;;;2.53;0.68;;;10.10;99.90;;;;;;4945192;29;20047;-66
2023/03/26 10:15:38;;;;;;;0.22;0.22;;;10.30;99.90;;;;;;4950700;29;20043;-66
2023/03/26 10:18:24;;;;;;;2.28;0.95;;;10.50;99.90;;;;;;4944817;29;20110;-66
2023/03/26 10:20:52;;;;;;;1.67;0.95;;;10.80;99.90;;;;;;4949987;29;20058;-66
2023/03/26 10:23:59;;;;;;;1.05;0.50;;;11.00;99.90;;;;;;4952019;28;20503;-66
2023/03/26 10:27:20;;;;;;;1.20;0.55;;;11.30;99.90;;;;;;4949443;28;20041;-65
2023/03/26 10:30:22;;;;;;;1.77;0.67;;;11.40;99.90;;;;;;4960950;28;20091;-65
2023/03/26 10:33:32;;;;;;;1.90;1.08;;;11.40;99.90;;;;;;4948509;29;20039;-66
2023/03/26 10:36:37;;;;;;;1.85;0.95;;;11.90;99.90;;;;;;4912270;29;20039;-66
2023/03/26 10:39:28;;;;;;;2.50;0.60;;;12.50;99.90;;;;;;4962229;28;20046;-66
2023/03/26 10:42:39;;;;;;;1.23;0.93;;;12.10;99.90;;;;;;4954602;28;20087;-66
2023/03/26 10:45:51;;;;;;;1.92;0.82;;;11.70;99.90;;;;;;4947145;29;20058;-67
2023/03/26 10:48:41;;;;;;;2.33;0.80;;;11.40;99.90;;;;;;4956552;28;20047;-65
2023/03/26 10:51:55;;;;;;;1.58;1.15;;;11.30;99.90;;;;;;4949120;29;20114;-68
2023/03/26 10:54:52;;;;;;;1.73;0.57;;;11.00;99.90;;;;;;4933798;28;20396;-66
2023/03/26 10:57:59;;;;;;;2.05;1.02;;;10.90;99.90;;;;;;4947388;29;20027;-66
2023/03/26 11:00:28;;;;;;;5.75;1.00;;;10.90;99.90;;;;;;4941256;28;20058;-67
2023/03/26 11:03:18;;;;;;;4.22;1.90;;;10.60;99.90;;;;;;4960579;28;20032;-68
2023/03/26 11:05:59;;;;;;;2.40;1.00;;;10.80;99.90;;;;;;4949899;29;20042;-66
2023/03/26 11:08:57;;;;;;;4.78;0.88;;;11.00;99.90;;;;;;4951398;28;20047;-68
2023/03/26 11:12:07;;;;;;;1.67;0.70;;;11.30;99.90;;;;;;4951790;28;20031;-70
2023/03/26 11:14:59;;;;;;;8.45;0.82;;;11.90;99.90;;;;;;4929417;29;20039;-66
2023/03/26 11:18:20;;;;;;;1.20;0.70;;;12.20;99.90;;;;;;4913799;29;20213;-66
2023/03/26 11:21:00;;;;;;;2.15;0.98;;;12.70;99.90;;;;;;4950130;28;20503;-65
2023/03/26 11:23:44;;;;;;;3.25;0.95;;;12.00;99.90;;;;;;4960748;28;20035;-66
2023/03/26 11:26:37;;;;;;;3.85;0.77;;;12.50;99.90;;;;;;4954306;29;20055;-66
2023/03/26 11:29:23;;;;;;;2.65;0.82;;;13.00;99.90;;;;;;4929614;29;20137;-67
2023/03/26 11:32:05;;;;;;;1.02;0.57;;;13.30;99.90;;;;;;4955180;28;20031;-69
2023/03/26 11:34:59;;;;;;;1.60;0.73;;;13.40;99.90;;;;;;4952402;29;20034;-67
2023/03/26 11:37:37;;;;;;;1.77;0.85;;;13.00;99.90;;;;;;4953012;29;20415;-67
2023/03/26 11:40:30;;;;;;;0.60;0.30;;;12.50;99.90;;;;;;4957791;28;20043;-68
2023/03/26 11:43:03;;;;;;;0.98;0.43;;;13.10;99.90;;;;;;4935372;29;20395;-69
2023/03/26 11:45:36;;;;;;;3.55;0.90;;;13.00;99.90;;;;;;4951251;29;20032;-69
2023/03/26 11:48:20;;;;;;;0.30;0.28;;;13.00;99.90;;;;;;4968200;28;20031;-68
2023/03/26 11:50:52;;;;;;;0.10;0.10;;;12.90;99.90;;;;;;4956024;28;20487;-67
2023/03/26 11:53:21;;;;;;;0.10;0.00;;;12.90;99.90;;;;;;4955091;28;20043;-68
2023/03/26 11:56:13;;;;;;;4.13;0.82;;;12.60;99.90;;;;;;4956271;28;20038;-71
2023/03/26 11:58:53;;;;;;;0.75;0.30;;;12.40;99.90;;;;;;4963994;28;20126;-67
2023/03/26 12:01:49;;;;;;;1.70;0.15;;;12.10;99.90;;;;;;4950612;29;20121;-67
2023/03/26 12:04:25;;;;;;;0.47;0.20;;;11.80;99.90;;;;;;4948362;28;20444;-68
2023/03/26 12:06:58;;;;;;;1.55;0.28;;;11.50;99.90;;;;;;4933215;29;20072;-67
2023/03/26 12:09:25;;;;;;;1.77;0.55;;;11.20;99.90;;;;;;4942479;29;20789;-68
2023/03/26 12:12:03;;;;;;;0.93;0.32;;;11.00;99.90;;;;;;4953745;28;20051;-68
2023/03/26 12:14:33;;;;;;;0.60;0.25;;;11.10;99.90;;;;;;4949567;29;20054;-67
2023/03/26 12:17:11;;;;;;;0.08;0.08;;;11.20;99.90;;;;;;4940549;29;20062;-67
2023/03/26 12:19:43;;;;;;;3.13;0.50;;;11.30;99.90;;;;;;4951895;29;20035;-69
2023/03/26 12:22:50;;;;;;;0.75;0.43;;;11.60;99.90;;;;;;4951316;29;20133;-68
2023/03/26 12:25:22;;;;;;;0.35;0.17;;;13.60;99.90;;;;;;4884639;29;20123;-68
2023/03/26 12:27:57;;;;;;;;;;;14.40;99.90;;;;;;4923814;29;20039;-68
2023/03/26 12:31:01;;;;;;;0.40;0.25;;;14.80;99.90;;;;;;4895991;29;19955;-68
2023/03/26 12:33:33;;;;;;;0.43;0.20;;;14.60;99.90;;;;;;4903768;29;20044;-68
2023/03/26 12:36:17;;;;;;;0.17;0.17;;;13.80;99.90;;;;;;4909936;29;20047;-68
2023/03/26 12:38:44;;;;;;;0.20;0.15;;;13.20;99.90;;;;;;4923541;29;20059;-68
2023/03/26 12:41:13;;;;;;;0.10;0.10;;;13.90;99.90;;;;;;4927083;29;20032;-68
2023/03/26 12:43:51;;;;;;;0.65;0.30;;;14.70;99.90;;;;;;4924908;29;20071;-67
2023/03/26 12:46:32;;;;;;;1.95;0.20;;;14.60;99.90;;;;;;4902178;29;20051;-68
2023/03/26 12:49:10;;;;;;;1.10;0.28;;;15.60;99.90;;;;;;4905034;29;20032;-68
2023/03/26 12:52:14;;;;;;;0.95;0.25;;;16.50;99.90;;;;;;4914486;29;20107;-68
2023/03/26 12:55:35;;;;;;;2.38;0.65;;;15.40;99.50;;;;;;4847481;29;20046;-66
2023/03/26 12:58:19;;;;;;;0.15;0.10;;;14.30;99.90;;;;;;4853560;29;20112;-67
2023/03/26 13:01:02;;;;;;;0.77;0.40;;;14.50;99.90;;;;;;4952033;28;20051;-66
2023/03/26 13:04:14;;;;;;;0.40;0.22;;;14.70;99.90;;;;;;4954612;28;20039;-66
2023/03/26 13:06:49;;;;;;;1.67;0.40;;;14.80;99.10;;;;;;4970194;28;20125;-67
2023/03/26 13:09:54;;;;;;;1.77;0.40;;;14.20;99.90;;;;;;4955493;28;20062;-73
2023/03/26 13:12:50;;;;;;;0.73;0.25;;;14.40;99.90;;;;;;4935536;29;20122;-65
2023/03/26 13:15:34;;;;;;;0.22;0.22;;;14.60;99.90;;;;;;4957372;28;20038;-64
2023/03/26 13:18:48;;;;;;;1.08;0.10;;;14.90;99.90;;;;;;4952103;28;20041;-64
2023/03/26 13:22:03;;;;;;;2.05;0.13;;;14.60;99.90;;;;;;4954364;28;20105;-64
2023/03/26 13:24:52;;;;;;;0.43;0.17;;;14.70;99.50;;;;;;4958371;28;20487;-64
2023/03/26 13:27:52;;;;;;;1.50;0.35;;;15.20;98.90;;;;;;4962245;28;20401;-65
2023/03/26 13:30:38;;;;;;;2.33;0.50;;;15.00;97.50;;;;;;4956687;28;20082;-65
2023/03/26 13:33:21;;;;;;;2.65;0.20;;;15.20;96.00;;;;;;4952852;28;20034;-65
2023/03/26 13:36:02;;;;;;;0.65;0.30;;;15.30;95.90;;;;;;4962831;28;20344;-65
2023/03/26 13:39:19;;;;;;;0.45;0.25;;;15.10;95.00;;;;;;4959949;28;20034;-65
2023/03/26 13:42:17;;;;;;;0.32;0.20;;;14.50;95.30;;;;;;4930089;29;20050;-65
2023/03/26 13:45:45;;;;;;;4.15;0.20;;;14.40;95.90;;;;;;4925838;29;20047;-65
2023/03/26 13:48:28;;;;;;;4.45;0.00;;;14.10;95.50;;;;;;4904832;29;20129;-64
2023/03/26 13:51:16;;;;;;;0.88;0.10;;;13.90;95.70;;;;;;4908583;29;20035;-65
2023/03/26 13:53:51;;;;;;;2.00;0.47;;;13.90;96.70;;;;;;4922211;29;20537;-64
2023/03/26 13:56:22;;;;;;;0.98;0.75;;;13.70;96.40;;;;;;4911692;29;20036;-64